• Join FlightAware (Why Join?)
  • Login
  • US Flag 
06:17PM EST


 

Airport Tracker/Info


-or-


 

Live Flight TrackerFlight Track Log ✈ SWA182 ✈ 16-Jun-2013 ✈ KDAL - KSAT

Flight Track Log - Related Links

Times and Time Zones

All times are in EDT time to prevent confusion due to time zone crossing. See the SWA182 flight status page for this flight to view local times or setup timezone preferences in your user account.

Time Position Orientation Groundspeed Altitude Reporting Facility
EDT Latitude Longitude Course Direction KTS MPH feet Rate Location/Type
06:23PM 32.8333 -96.8333 121° Southeast 171 197 1,500  Level Dallas / Fort Worth TRACON
06:24PM 32.8167 -96.8000 121° Southeast 207 238 2,500 2,220 Climbing Dallas / Fort Worth TRACON
06:25PM 32.7667 -96.7500 140° Southeast 229 264 5,100 2,400 Climbing Dallas / Fort Worth TRACON
06:26PM 32.7000 -96.7833 203° Southwest 278 320 7,400 2,280 Climbing Dallas / Fort Worth TRACON
06:28PM 32.5692 -96.8611 207° Southwest 307 353 11,300 2,340 Climbing Fort Worth Center
06:29PM 32.4881 -96.9183 211° Southwest 337 388 13,800 2,340 Climbing Fort Worth Center
06:30PM 32.4006 -96.9778 210° Southwest 359 413 16,000 2,400 Climbing Fort Worth Center
06:31PM 32.3108 -97.0397 210° Southwest 371 427 18,600 1,980 Climbing Fort Worth Center
06:32PM 32.2067 -97.0672 193° South 377 434 20,000 1,860 Climbing Fort Worth Center
06:33PM 32.0939 -97.0675 180° South 382 440 22,400 1,920 Climbing Fort Worth Center
06:34PM 31.9811 -97.0731 182° South 401 461 23,900 1,260 Climbing Fort Worth Center
06:35PM 31.8706 -97.0906 188° South 406 467 25,000 840 Climbing Fort Worth Center
06:36PM 31.7881 -97.1131 193° South 440 506 25,500 1,080 Climbing Houston Center
06:37PM 31.6650 -97.1494 194° South 450 518 27,000 1,680 Climbing Houston Center
06:38PM 31.5244 -97.1919 194° South 444 511 29,000 1,440 Climbing Houston Center
06:39PM 31.4025 -97.2283 194° South 447 514 30,000 480 Climbing Houston Center
06:40PM 31.2758 -97.2658 194° South 461 531 30,000  Level Houston Center
06:41PM 31.1511 -97.3036 195° South 461 531 30,000  Level Houston Center
06:42PM 31.0281 -97.3411 195° South 459 528 30,000  Level Houston Center
06:43PM 30.9094 -97.3733 193° South 463 533 30,000  Level Houston Center
06:44PM 30.7600 -97.4183 195° South 463 533 30,000 -360 Level Houston Center
06:45PM 30.6356 -97.4550 194° South 459 528 29,300 -840 Descending Houston Center
06:46PM 30.5092 -97.4917 194° South 462 532 28,300 -2,040 Descending Houston Center
06:47PM 30.3825 -97.5314 195° South 465 535 25,200 -2,880 Descending Houston Center
06:48PM 30.2708 -97.6025 209° Southwest 456 525 22,500 -2,640 Descending Houston Center
06:49PM 30.1636 -97.6781 211° Southwest 448 516 19,800 -2,700 Descending Houston Center
06:50PM 30.0531 -97.7547 211° Southwest 424 488 17,000 -2,700 Descending Houston Center
06:51PM 29.9717 -97.8114 211° Southwest 402 463 14,800 -2,220 Descending Houston Center
06:52PM 29.8886 -97.8869 218° Southwest 380 437 12,900 -1,680 Descending Houston Center
06:53PM 29.8406 -97.9992 244° Southwest 362 417 11,400 -1,380 Descending Houston Center
06:54PM 29.7994 -98.0983 244° Southwest 371 427 10,300 -1,080 Descending Houston Center
06:54PM 29.7861 -98.1264 241° Southwest 353 406 10,100 -600 Descending Houston Center
06:55PM 29.7594 -98.1875 243° Southwest 303 349 9,700 -780 Descending Houston Center
06:55PM 29.7489 -98.2133 245° Southwest 303 349 9,300 -1,440 Descending Houston Center
06:56PM 29.7217 -98.2764 244° Southwest 279 321 8,100 -1,680 Descending Houston Center
06:56PM 29.7114 -98.3014 245° Southwest 287 330 7,600 -1,380 Descending Houston Center
06:57PM 29.6872 -98.3575 244° Southwest 282 325 6,700 -1,200 Descending Houston Center
06:57PM 29.6769 -98.3819 244° Southwest 283 326 6,400 -1,200 Descending Houston Center
06:58PM 29.6775 -98.4333 271° West 276 318 5,600 -1,380 Descending Houston Center
06:58PM 29.6819 -98.4722 278° West 296 341 5,000 -1,020 Descending Houston Center
06:59PM 29.6897 -98.5231 280° West 264 304 4,600 -600 Descending Houston Center
06:59PM 29.6931 -98.5525 277° West 255 293 4,400 -540 Descending Houston Center
07:00PM 29.6817 -98.5939 252° West 224 258 4,100 -600 Descending Houston Center
07:00PM 29.6606 -98.6114 216° Southwest 217 250 3,800 -540 Descending Houston Center
07:01PM 29.6322 -98.6044 168° South 188 216 3,500 -720 Descending Houston Center
07:01PM 29.6186 -98.5856 130° Southeast 198 228 3,100 -1,200 Descending Houston Center
07:02PM 29.6008 -98.5603 129° Southeast 190 219 2,400 -1,080 Descending Houston Center
07:02PM 29.5822 -98.5350 130° Southeast 191 220 2,000 -840 Descending Houston Center
07:03PM 29.5700 -98.5206 134° Southeast 160 184 1,600 -780 Descending Houston Center
07:03PM 29.5556 -98.5000 129° Southeast 147 169 1,200 -540 Descending Houston Center
07:04PM 29.5333 -98.4717 132° Southeast 141 162 800 -420 Descending Houston Center